Time;durP1;ratioP1;P1;durP2;ratioP2;P2;SDS_P1;SDS_P2;PMS_P1;PMS_P2;Temp;Humidity;BMP_temperature;BMP_pressure;BME280_temperature;BME280_humidity;BME280_pressure;Samples;Min_cycle;Max_cycle;Signal;HPM_P1;HPM_P2
2022/11/21 00:01:00;;;;;;;654.13;528.08;;;;;;;-2.77;100.00;97350.38;7387086;19;20006;-67
2022/11/21 00:03:33;;;;;;;647.70;522.90;;;;;;;-2.81;100.00;97341.03;7387556;19;21575;-59
2022/11/21 00:06:11;;;;;;;449.48;399.55;;;;;;;-2.89;100.00;97337.78;7387984;19;20010;-59
2022/11/21 00:08:45;;;;;;;434.17;386.45;;;;;;;-2.87;100.00;97338.59;7382949;19;20017;-59
2022/11/21 00:11:20;;;;;;;431.10;383.42;;;;;;;-2.89;100.00;97344.63;7388427;19;20361;-55
2022/11/21 00:13:55;;;;;;;395.40;354.05;;;;;;;-2.90;100.00;97328.38;7384131;19;20011;-56
2022/11/21 00:16:29;;;;;;;393.33;351.55;;;;;;;-2.92;100.00;97329.31;7389005;19;20009;-60
2022/11/21 00:19:03;;;;;;;382.30;342.17;;;;;;;-2.90;100.00;97333.53;7388863;19;20043;-60
2022/11/21 00:21:40;;;;;;;395.83;354.30;;;;;;;-2.92;100.00;97322.41;7387292;19;20021;-58
2022/11/21 00:24:16;;;;;;;380.70;340.58;;;;;;;-2.88;100.00;97333.50;7389463;19;20015;-57
2022/11/21 00:26:50;;;;;;;389.50;347.65;;;;;;;-2.87;100.00;97318.03;7381342;19;20437;-58
2022/11/21 00:29:23;;;;;;;391.67;350.58;;;;;;;-2.85;100.00;97317.97;7388105;19;20036;-57
2022/11/21 00:31:57;;;;;;;413.98;371.23;;;;;;;-2.86;100.00;97313.72;7387430;19;20006;-57
2022/11/21 00:34:30;;;;;;;413.00;371.10;;;;;;;-2.82;100.00;97310.19;7389711;19;20015;-56
2022/11/21 00:37:06;;;;;;;405.80;363.63;;;;;;;-2.86;100.00;97295.72;7386098;19;20002;-58
2022/11/21 00:39:40;;;;;;;415.00;370.55;;;;;;;-2.96;100.00;97296.78;7381826;19;20010;-55
2022/11/21 00:42:13;;;;;;;380.77;341.08;;;;;;;-2.96;100.00;97296.78;7387734;19;20011;-58
2022/11/21 00:44:46;;;;;;;380.33;340.77;;;;;;;-3.05;100.00;97295.28;7389521;19;20007;-58
2022/11/21 00:47:20;;;;;;;390.30;349.30;;;;;;;-3.22;100.00;97294.78;7385255;19;20018;-57
2022/11/21 00:49:53;;;;;;;378.83;338.65;;;;;;;-3.24;100.00;97296.53;7390169;19;20014;-57
2022/11/21 00:52:29;;;;;;;433.73;388.98;;;;;;;-3.27;100.00;97309.47;7384826;19;20014;-56
2022/11/21 00:55:02;;;;;;;412.48;369.63;;;;;;;-3.29;100.00;97295.78;7387744;19;20015;-58
2022/11/21 00:57:35;;;;;;;413.55;369.90;;;;;;;-3.28;100.00;97299.22;7387966;19;20018;-57
2022/11/21 01:00:13;;;;;;;417.67;374.25;;;;;;;-3.26;100.00;97302.56;7388015;19;20353;-59
2022/11/21 01:02:47;;;;;;;395.67;354.23;;;;;;;-3.13;100.00;97296.31;7389425;19;20018;-59
2022/11/21 01:05:20;;;;;;;406.25;363.52;;;;;;;-3.15;100.00;97296.34;7383940;19;20074;-57
2022/11/21 01:07:56;;;;;;;387.45;347.20;;;;;;;-3.16;100.00;97292.09;7388172;19;20419;-58
2022/11/21 01:10:30;;;;;;;403.60;361.77;;;;;;;-3.17;100.00;97281.84;7386024;19;20078;-65
2022/11/21 01:13:03;;;;;;;391.42;349.90;;;;;;;-3.03;100.00;97282.41;7388440;19;20486;-57
2022/11/21 01:15:36;;;;;;;384.23;344.65;;;;;;;-3.20;100.00;97282.75;7386703;19;20408;-57
2022/11/21 01:18:10;;;;;;;406.85;363.95;;;;;;;-3.26;100.00;97280.31;7379959;19;20375;-55
2022/11/21 01:20:45;;;;;;;386.60;346.60;;;;;;;-3.21;100.00;97282.78;7386078;19;20017;-57
2022/11/21 01:23:21;;;;;;;391.20;350.23;;;;;;;-3.27;100.00;97276.03;7388659;19;20010;-65
2022/11/21 01:25:54;;;;;;;421.30;375.58;;;;;;;-3.27;100.00;97282.91;7388198;19;20027;-57
2022/11/21 01:28:27;;;;;;;440.98;387.38;;;;;;;-3.25;100.00;97281.16;7387102;19;20010;-56
2022/11/21 01:31:00;;;;;;;578.90;481.88;;;;;;;-3.21;100.00;97275.06;7382250;19;20010;-58
2022/11/21 01:33:34;;;;;;;444.17;397.35;;;;;;;-3.24;100.00;97264.84;7388037;19;20082;-63
2022/11/21 01:36:16;;;;;;;401.38;360.58;;;;;;;-3.26;100.00;97261.44;7390202;19;20038;-61
2022/11/21 01:38:54;;;;;;;443.67;395.48;;;;;;;-3.25;100.00;97261.41;7387957;19;20015;-57
2022/11/21 01:41:32;;;;;;;523.40;461.60;;;;;;;-3.36;100.00;97263.38;7389245;19;20488;-65
2022/11/21 01:44:05;;;;;;;550.90;456.35;;;;;;;-3.48;100.00;97265.34;7388114;19;20015;-58
2022/11/21 01:46:38;;;;;;;507.05;451.30;;;;;;;-3.53;100.00;97272.31;7385957;19;20026;-55
2022/11/21 01:49:15;;;;;;;410.65;367.48;;;;;;;-3.68;100.00;97270.03;7378425;19;20031;-56
2022/11/21 01:51:54;;;;;;;415.58;373.50;;;;;;;-3.57;100.00;97262.97;7389153;19;20019;-59
2022/11/21 01:54:34;;;;;;;546.85;466.80;;;;;;;-3.66;100.00;97260.56;7383713;19;20027;-58
2022/11/21 01:57:13;;;;;;;425.73;379.23;;;;;;;-3.68;100.00;97257.19;7388211;19;20045;-57
2022/11/21 01:59:47;;;;;;;;;;;;;;;-3.71;100.00;97264.97;7384072;19;20476;-64
2022/11/21 02:02:23;;;;;;;434.80;388.30;;;;;;;-3.83;100.00;97266.03;7388177;19;19917;-55
2022/11/21 02:04:58;;;;;;;426.20;373.52;;;;;;;-4.06;100.00;97264.78;7386930;19;20010;-57
2022/11/21 02:07:34;;;;;;;409.13;366.85;;;;;;;-3.99;100.00;97266.34;7385259;19;20033;-58
2022/11/21 02:10:11;;;;;;;395.40;352.80;;;;;;;-4.01;100.00;97258.69;7387251;19;20458;-57
2022/11/21 02:12:50;;;;;;;413.52;369.45;;;;;;;-4.16;100.00;97251.25;7382838;19;20006;-58
2022/11/21 02:15:24;;;;;;;392.73;351.40;;;;;;;-4.41;100.00;97262.81;7387471;19;20010;-59
2022/11/21 02:17:58;;;;;;;398.90;356.42;;;;;;;-4.14;100.00;97262.34;7379354;19;20007;-60
2022/11/21 02:20:33;;;;;;;413.05;369.33;;;;;;;-4.22;100.00;97268.47;7386053;19;20369;-57
2022/11/21 02:23:17;;;;;;;395.77;352.83;;;;;;;-4.23;100.00;97262.53;7388528;19;20018;-57
2022/11/21 02:25:53;;;;;;;380.30;339.10;;;;;;;-4.17;100.00;97267.53;7385864;19;20018;-56
2022/11/21 02:28:28;;;;;;;380.88;339.70;;;;;;;-4.22;100.00;97273.59;7383910;19;20343;-58
2022/11/21 02:31:01;;;;;;;382.95;342.10;;;;;;;-4.20;100.00;97269.31;7383487;19;20104;-57
2022/11/21 02:33:35;;;;;;;387.35;347.42;;;;;;;-4.20;100.00;97262.44;7387374;19;20019;-59
2022/11/21 02:36:08;;;;;;;405.05;363.60;;;;;;;-4.24;100.00;97255.66;7381757;19;20033;-61
2022/11/21 02:38:44;;;;;;;385.90;345.80;;;;;;;-4.44;100.00;97251.75;7386586;19;20047;-59
2022/11/21 02:41:28;;;;;;;392.65;351.55;;;;;;;-4.38;100.00;97246.53;7385353;19;20078;-57
2022/11/21 02:44:05;;;;;;;386.38;345.73;;;;;;;-4.44;100.00;97247.47;7384830;19;20018;-60
2022/11/21 02:46:40;;;;;;;388.50;348.52;;;;;;;-4.42;100.00;97255.97;7385568;19;20015;-57
2022/11/21 02:49:15;;;;;;;401.08;359.17;;;;;;;-4.46;100.00;97256.09;7385568;19;20010;-57
2022/11/21 02:51:48;;;;;;;394.08;353.08;;;;;;;-4.69;100.00;97253.03;7388322;19;20419;-56
2022/11/21 02:54:21;;;;;;;403.50;361.15;;;;;;;-5.05;100.00;97258.72;7379197;19;20038;-56
2022/11/21 02:56:57;;;;;;;380.02;339.90;;;;;;;-5.19;100.00;97251.25;7384978;19;20014;-57
2022/11/21 02:59:30;;;;;;;367.08;326.58;;;;;;;-5.27;100.00;97250.47;7386043;19;20011;-57
2022/11/21 03:02:04;;;;;;;369.63;325.40;;;;;;;-5.11;100.00;97251.97;7384425;19;20045;-59
2022/11/21 03:04:37;;;;;;;378.67;338.02;;;;;;;-4.80;100.00;97242.94;7385710;19;20025;-57
2022/11/21 03:07:10;;;;;;;693.78;525.90;;;;;;;-4.75;100.00;97241.16;7380521;19;20082;-57
2022/11/21 03:09:43;;;;;;;733.35;550.30;;;;;;;-4.99;100.00;97238.13;7384523;19;20422;-57
2022/11/21 03:12:20;;;;;;;744.35;552.20;;;;;;;-4.71;100.00;97237.69;7384716;19;20458;-58
2022/11/21 03:14:53;;;;;;;748.30;557.40;;;;;;;-4.82;100.00;97234.44;7385391;19;20026;-62
2022/11/21 03:17:26;;;;;;;740.78;548.00;;;;;;;-4.92;100.00;97239.72;7386293;19;20027;-57
2022/11/21 03:19:59;;;;;;;742.80;534.20;;;;;;;-4.68;100.00;97241.91;7380052;19;20066;-59
2022/11/21 03:22:33;;;;;;;721.10;518.20;;;;;;;-4.74;100.00;97240.28;7382334;19;20010;-60
2022/11/21 03:25:07;;;;;;;726.83;538.33;;;;;;;-4.92;100.00;97252.53;7386379;19;20007;-58
2022/11/21 03:27:42;;;;;;;757.63;555.42;;;;;;;-4.98;100.00;97239.84;7380723;19;20019;-54
2022/11/21 03:30:17;;;;;;;740.05;536.60;;;;;;;-5.16;100.00;97237.53;7384794;19;20014;-58
2022/11/21 03:32:50;;;;;;;739.33;557.78;;;;;;;-5.12;100.00;97239.19;7379484;19;20038;-58
2022/11/21 03:35:23;;;;;;;715.40;530.85;;;;;;;-5.12;100.00;97240.00;7382830;19;20014;-60
2022/11/21 03:37:57;;;;;;;685.58;518.22;;;;;;;-4.92;100.00;97232.88;7382348;19;20015;-60
2022/11/21 03:40:30;;;;;;;627.65;498.45;;;;;;;-4.87;100.00;97230.25;7382762;19;20011;-58
2022/11/21 03:43:10;;;;;;;430.85;367.38;;;;;;;-5.08;100.00;97216.06;7384204;19;20027;-57
2022/11/21 03:45:45;;;;;;;396.80;353.80;;;;;;;-5.21;100.00;97216.22;7379589;19;20014;-57
2022/11/21 03:48:21;;;;;;;392.48;351.00;;;;;;;-5.13;100.00;97196.50;7382460;19;20033;-60
2022/11/21 03:50:54;;;;;;;400.42;357.80;;;;;;;-5.18;100.00;97203.38;7382580;19;20388;-65
2022/11/21 03:53:27;;;;;;;366.23;326.10;;;;;;;-5.29;100.00;97195.88;7385308;19;20007;-57
2022/11/21 03:56:01;;;;;;;363.48;322.63;;;;;;;-5.37;100.00;97190.00;7384879;19;20236;-58
2022/11/21 03:58:37;;;;;;;374.80;334.00;;;;;;;-5.52;100.00;97190.22;7378018;19;20015;-67
2022/11/21 04:01:11;;;;;;;358.77;320.33;;;;;;;-5.53;100.00;97180.00;7385799;19;20011;-56
2022/11/21 04:03:45;;;;;;;405.52;363.63;;;;;;;-5.25;100.00;97173.59;7381807;19;20010;-58
2022/11/21 04:06:21;;;;;;;395.73;354.88;;;;;;;-5.28;100.00;97186.44;7386030;19;20015;-56
2022/11/21 04:08:55;;;;;;;392.20;351.25;;;;;;;-5.32;100.00;97188.22;7382552;19;20030;-66
2022/11/21 04:11:28;;;;;;;409.52;366.45;;;;;;;-5.40;100.00;97187.50;7379169;19;20014;-57
2022/11/21 04:14:04;;;;;;;396.38;354.77;;;;;;;-5.45;100.00;97188.41;7388189;19;20006;-59
2022/11/21 04:16:37;;;;;;;400.25;358.20;;;;;;;-5.29;100.00;97174.50;7386477;19;20030;-60
2022/11/21 04:19:11;;;;;;;395.90;355.02;;;;;;;-5.29;100.00;97160.00;7390168;19;20006;-57
2022/11/21 04:21:44;;;;;;;386.40;346.52;;;;;;;-5.23;100.00;97174.44;7390194;19;20010;-55
2022/11/21 04:24:17;;;;;;;422.65;377.63;;;;;;;-4.83;100.00;97171.19;7387325;19;20011;-57
2022/11/21 04:26:50;;;;;;;395.63;354.13;;;;;;;-4.70;100.00;97167.56;7391714;19;20020;-60
2022/11/21 04:29:26;;;;;;;396.35;356.10;;;;;;;-4.56;100.00;97160.50;7386582;19;20010;-67
2022/11/21 04:31:59;;;;;;;391.10;351.10;;;;;;;-4.32;100.00;97161.75;7386395;19;20019;-57
2022/11/21 04:34:33;;;;;;;393.17;352.73;;;;;;;-4.27;100.00;97159.94;7391252;19;20025;-60
2022/11/21 04:37:06;;;;;;;409.42;366.83;;;;;;;-4.45;100.00;97144.88;7387263;19;20074;-59
2022/11/21 04:39:39;;;;;;;400.67;359.60;;;;;;;-4.49;100.00;97150.97;7390323;19;20428;-59
2022/11/21 04:42:12;;;;;;;390.52;350.23;;;;;;;-4.81;100.00;97143.84;7386833;19;20415;-65
2022/11/21 04:44:48;;;;;;;386.20;345.98;;;;;;;-4.75;100.00;97145.44;7391037;19;20023;-57
2022/11/21 04:47:21;;;;;;;385.48;344.75;;;;;;;-4.85;100.00;97147.31;7389212;19;20057;-59
2022/11/21 04:49:55;;;;;;;400.75;358.08;;;;;;;-4.98;100.00;97147.56;7381486;19;20083;-57
2022/11/21 04:52:28;;;;;;;421.98;376.65;;;;;;;-5.05;100.00;97146.78;7391369;19;20711;-60
2022/11/21 04:55:02;;;;;;;373.15;333.92;;;;;;;-4.90;100.00;97143.16;7388271;19;20355;-66
2022/11/21 04:57:37;;;;;;;431.45;373.65;;;;;;;-4.95;100.00;97127.84;7386314;19;20021;-63
2022/11/21 05:00:14;;;;;;;432.20;371.00;;;;;;;-4.83;100.00;97125.06;7388895;19;20017;-55
2022/11/21 05:02:48;;;;;;;431.05;375.90;;;;;;;-4.63;100.00;97127.28;7384776;19;20011;-57
2022/11/21 05:05:21;;;;;;;387.20;345.33;;;;;;;-4.61;100.00;97118.66;7387199;19;20017;-58
2022/11/21 05:07:55;;;;;;;397.08;355.80;;;;;;;-4.57;100.00;97124.59;7385342;19;20419;-66
2022/11/21 05:10:28;;;;;;;413.02;370.70;;;;;;;-4.64;100.00;97117.91;7388891;19;20014;-58
2022/11/21 05:15:53;;;;;;;682.58;552.58;;;;;;;-4.83;100.00;97116.53;7389642;19;20014;-57
2022/11/21 05:18:27;;;;;;;687.63;555.90;;;;;;;-4.93;100.00;97115.00;7389366;19;20486;-59
2022/11/21 05:21:00;;;;;;;692.20;561.22;;;;;;;-4.84;100.00;97113.13;7388466;19;20345;-56
2022/11/21 05:23:34;;;;;;;668.88;535.97;;;;;;;-4.87;100.00;97107.22;7389519;19;20412;-57
2022/11/21 05:26:07;;;;;;;670.45;545.45;;;;;;;-4.69;100.00;97117.97;7385106;19;20014;-66
2022/11/21 05:28:40;;;;;;;647.90;539.50;;;;;;;-4.69;100.00;97112.84;7388574;19;20017;-59
2022/11/21 05:31:16;;;;;;;617.25;523.53;;;;;;;-4.75;100.00;97117.25;7386088;19;20529;-58
2022/11/21 05:33:49;;;;;;;670.42;550.78;;;;;;;-4.97;100.00;97115.91;7386287;19;20010;-58
2022/11/21 05:36:22;;;;;;;630.53;512.00;;;;;;;-5.02;100.00;97110.88;7388258;19;20021;-57
2022/11/21 05:38:56;;;;;;;624.65;511.27;;;;;;;-4.86;100.00;97119.16;7383392;19;20770;-59
2022/11/21 05:41:29;;;;;;;432.75;386.35;;;;;;;-4.88;100.00;97111.47;7384992;19;20029;-58
2022/11/21 05:44:00;;;;;;;431.92;387.08;;;;;;;-4.81;100.00;97107.09;7386642;19;20091;-58
2022/11/21 05:46:36;;;;;;;445.40;399.70;;;;;;;-4.87;100.00;97099.53;7383684;19;20450;-60
2022/11/21 05:49:10;;;;;;;419.13;375.02;;;;;;;-5.23;100.00;97107.81;7387494;19;20011;-59
2022/11/21 05:51:43;;;;;;;421.17;377.02;;;;;;;-5.11;100.00;97116.16;7384480;19;20042;-66
2022/11/21 05:54:19;;;;;;;413.25;369.30;;;;;;;-5.03;100.00;97105.75;7388014;19;20034;-57
2022/11/21 05:56:52;;;;;;;428.48;383.60;;;;;;;-4.84;100.00;97107.13;7387697;19;20442;-58
2022/11/21 05:59:26;;;;;;;435.50;389.50;;;;;;;-5.01;100.00;97104.03;7380031;19;20015;-57
2022/11/21 06:04:47;;;;;;;436.73;390.90;;;;;;;-4.96;100.00;97112.47;7383141;19;20010;-59
2022/11/21 06:07:20;;;;;;;449.55;403.83;;;;;;;-4.89;100.00;97114.94;7388078;19;20017;-56
2022/11/21 06:09:53;;;;;;;447.20;400.80;;;;;;;-4.89;100.00;97120.06;7384185;19;20098;-66
2022/11/21 06:12:26;;;;;;;437.52;392.70;;;;;;;-5.04;100.00;97122.03;7387312;19;20674;-59
2022/11/21 06:15:00;;;;;;;442.83;397.45;;;;;;;-5.04;100.00;97127.16;7385335;19;20340;-60
2022/11/21 06:17:36;;;;;;;469.83;422.40;;;;;;;-5.03;100.00;97126.25;7378930;19;20074;-59
2022/11/21 06:20:10;;;;;;;440.15;395.52;;;;;;;-5.04;100.00;97122.03;7383500;19;20476;-58
2022/11/21 06:22:43;;;;;;;459.70;414.20;;;;;;;-5.02;100.00;97123.69;7381883;19;20011;-63
2022/11/21 06:25:16;;;;;;;442.67;398.98;;;;;;;-5.07;100.00;97114.38;7385791;19;20011;-58
2022/11/21 06:27:49;;;;;;;464.15;418.75;;;;;;;-5.04;100.00;97115.19;7386775;19;20033;-57
2022/11/21 06:30:26;;;;;;;480.90;433.00;;;;;;;-4.98;100.00;97116.81;7376551;19;20006;-59
2022/11/21 06:33:02;;;;;;;514.10;460.63;;;;;;;-4.92;100.00;97116.69;7383127;19;20018;-60
2022/11/21 06:35:36;;;;;;;421.30;378.10;;;;;;;-4.88;100.00;97115.75;7377702;19;20031;-68
2022/11/21 06:38:11;;;;;;;478.70;428.45;;;;;;;-4.72;100.00;97122.31;7386133;19;20014;-61
2022/11/21 06:40:44;;;;;;;463.88;413.92;;;;;;;-4.84;100.00;97118.25;7384702;19;20342;-59
2022/11/21 06:43:20;;;;;;;533.60;474.90;;;;;;;-4.81;100.00;97119.91;7381131;19;20031;-59
2022/11/21 06:45:54;;;;;;;513.70;456.83;;;;;;;-4.75;100.00;97120.63;7385825;19;20025;-59
2022/11/21 06:48:30;;;;;;;408.13;365.15;;;;;;;-4.74;100.00;97112.09;7380516;19;20014;-60
2022/11/21 06:51:03;;;;;;;486.10;435.17;;;;;;;-4.62;100.00;97109.28;7385561;19;20082;-58
2022/11/21 06:53:36;;;;;;;500.70;448.45;;;;;;;-4.63;100.00;97109.31;7380470;19;20021;-59
2022/11/21 06:56:10;;;;;;;523.28;468.88;;;;;;;-4.62;100.00;97103.31;7381989;19;20491;-61
2022/11/21 06:58:44;;;;;;;491.30;439.15;;;;;;;-4.60;100.00;97112.69;7382029;19;20011;-59
2022/11/21 07:01:17;;;;;;;412.75;368.77;;;;;;;-4.54;100.00;97109.16;7381777;19;20014;-64
2022/11/21 07:03:54;;;;;;;454.50;410.20;;;;;;;-4.65;100.00;97109.34;7386659;19;20017;-59
2022/11/21 07:06:27;;;;;;;383.38;343.38;;;;;;;-4.60;100.00;97114.41;7385293;19;20489;-58
2022/11/21 07:09:01;;;;;;;414.00;370.88;;;;;;;-4.55;100.00;97116.00;7382693;19;20018;-57
2022/11/21 07:11:34;;;;;;;427.73;385.55;;;;;;;-4.50;100.00;97103.09;7387299;19;20011;-59
2022/11/21 07:14:04;;;;;;;514.10;458.88;;;;;;;-4.38;100.00;97103.72;7380604;19;20010;-61
2022/11/21 07:16:39;;;;;;;537.20;478.73;;;;;;;-4.28;100.00;97099.25;7380942;19;20573;-60
2022/11/21 07:19:16;;;;;;;540.63;481.63;;;;;;;-4.19;100.00;97099.91;7383689;19;20038;-58
2022/11/21 07:21:51;;;;;;;541.92;481.75;;;;;;;-4.16;100.00;97089.53;7382892;19;20029;-58
2022/11/21 07:24:25;;;;;;;549.03;488.33;;;;;;;-4.15;100.00;97085.28;7381016;19;20031;-59
2022/11/21 07:26:58;;;;;;;563.63;501.50;;;;;;;-4.04;100.00;97089.31;7376637;19;20050;-60
2022/11/21 07:29:32;;;;;;;550.20;490.10;;;;;;;-3.93;100.00;97081.38;7381988;19;20025;-58
2022/11/21 07:32:05;;;;;;;531.85;475.00;;;;;;;-3.82;100.00;97077.72;7384210;19;20010;-58
2022/11/21 07:34:41;;;;;;;555.72;496.33;;;;;;;-3.77;100.00;97073.31;7383432;19;20102;-60
2022/11/21 07:37:14;;;;;;;540.70;483.65;;;;;;;-3.57;100.00;97075.44;7384786;19;20010;-57
2022/11/21 07:39:48;;;;;;;489.77;440.30;;;;;;;-3.61;100.00;97073.81;7377610;19;20017;-59
2022/11/21 07:42:21;;;;;;;441.05;397.33;;;;;;;-3.59;100.00;97072.91;7384490;19;20070;-61
2022/11/21 07:44:54;;;;;;;435.05;392.02;;;;;;;-3.51;100.00;97075.31;7381922;19;20011;-58
2022/11/21 07:47:27;;;;;;;469.80;423.48;;;;;;;-3.40;100.00;97068.16;7385216;19;20021;-56
2022/11/21 07:50:03;;;;;;;448.63;404.85;;;;;;;-3.33;100.00;97060.28;7386897;19;20024;-57
2022/11/21 07:52:36;;;;;;;436.58;393.77;;;;;;;-3.11;100.00;97042.59;7384781;19;20006;-65
2022/11/21 07:55:11;;;;;;;424.77;384.00;;;;;;;-2.98;100.00;97064.53;7391689;19;20014;-58
2022/11/21 07:57:44;;;;;;;427.42;386.27;;;;;;;-2.77;100.00;97057.09;7386417;19;20018;-61
2022/11/21 08:00:19;;;;;;;441.25;398.35;;;;;;;-2.80;100.00;97051.22;7384363;19;20018;-60
2022/11/21 08:02:53;;;;;;;421.42;380.05;;;;;;;-2.68;100.00;97046.59;7385280;19;20081;-59
2022/11/21 08:05:30;;;;;;;437.08;393.92;;;;;;;-2.51;100.00;97053.84;7378840;19;20358;-63
2022/11/21 08:08:03;;;;;;;427.17;385.17;;;;;;;-2.70;100.00;97053.50;7389869;19;20025;-57
2022/11/21 08:10:36;;;;;;;430.95;388.70;;;;;;;-2.31;100.00;97049.00;7390576;19;20038;-57
2022/11/21 08:13:12;;;;;;;441.30;398.05;;;;;;;-2.35;100.00;97055.09;7384990;19;20010;-59
2022/11/21 08:15:45;;;;;;;412.08;371.40;;;;;;;-2.21;100.00;97043.53;7389184;19;20014;-61
2022/11/21 08:18:21;;;;;;;453.10;408.88;;;;;;;-2.08;100.00;97044.88;7383249;19;20029;-59
2022/11/21 08:20:57;;;;;;;411.75;371.73;;;;;;;-1.97;100.00;97041.97;7388166;19;20021;-58
2022/11/21 08:23:30;;;;;;;426.83;385.38;;;;;;;-1.79;100.00;97045.75;7388769;19;20025;-68
2022/11/21 08:26:03;;;;;;;428.58;386.73;;;;;;;-1.77;100.00;97047.38;7383984;19;20018;-61
2022/11/21 08:28:36;;;;;;;430.65;387.90;;;;;;;-1.95;100.00;97051.31;7387752;19;20443;-59
2022/11/21 08:31:10;;;;;;;462.27;417.65;;;;;;;-1.97;100.00;97044.53;7383352;19;20018;-58
2022/11/21 08:33:43;;;;;;;447.38;405.23;;;;;;;-2.12;100.00;97047.56;7390380;19;20024;-59
2022/11/21 08:36:19;;;;;;;449.15;406.15;;;;;;;-2.02;100.00;97047.28;7387753;19;20432;-59
2022/11/21 08:38:52;;;;;;;435.30;392.00;;;;;;;-1.84;100.00;97043.31;7390858;19;20030;-59
2022/11/21 08:44:11;;;;;;;440.10;396.05;;;;;;;-1.80;100.00;97033.72;7387758;19;20022;-58
2022/11/21 08:46:45;;;;;;;434.30;390.70;;;;;;;-2.00;100.00;97036.94;7391189;19;20011;-59
2022/11/21 08:49:18;;;;;;;441.65;396.90;;;;;;;-1.89;100.00;97036.59;7384040;19;20478;-60
2022/11/21 08:51:55;;;;;;;440.95;397.38;;;;;;;-1.63;100.00;97034.06;7392167;19;20494;-62
2022/11/21 08:54:30;;;;;;;432.83;389.30;;;;;;;-1.82;100.00;97030.38;7390040;19;20014;-61
2022/11/21 08:57:03;;;;;;;437.20;392.75;;;;;;;-1.96;100.00;97044.50;7389554;19;20014;-59
2022/11/21 08:59:36;;;;;;;440.35;396.80;;;;;;;-1.69;100.00;97036.81;7388870;19;20030;-58
2022/11/21 09:02:09;;;;;;;430.83;386.33;;;;;;;-1.52;100.00;97042.31;7384178;19;20010;-58
2022/11/21 09:04:42;;;;;;;431.67;387.50;;;;;;;-1.68;100.00;97036.78;7387583;19;20079;-57
2022/11/21 09:07:18;;;;;;;466.25;420.35;;;;;;;-1.38;100.00;97030.66;7389297;19;20493;-59
2022/11/21 09:09:52;;;;;;;455.40;410.35;;;;;;;-1.44;100.00;97035.19;7390381;19;20038;-57
2022/11/21 09:12:25;;;;;;;454.45;410.30;;;;;;;-1.76;100.00;97028.44;7388453;19;20087;-58
2022/11/21 09:20:29;;;;;;;450.33;405.23;;;;;;;-1.46;100.00;97014.59;7386893;19;20033;-58
2022/11/21 09:23:09;;;;;;;428.40;386.00;;;;;;;-1.48;100.00;97016.41;7390523;19;20010;-57
2022/11/21 09:25:43;;;;;;;451.38;406.63;;;;;;;-1.37;100.00;97019.47;7381217;19;20022;-58
2022/11/21 09:28:18;;;;;;;433.98;391.58;;;;;;;-1.24;100.00;97018.16;7389838;19;20014;-60
2022/11/21 09:30:51;;;;;;;448.90;404.70;;;;;;;-1.14;100.00;97010.97;7387283;19;20047;-67
2022/11/21 09:33:24;;;;;;;446.67;402.30;;;;;;;-1.00;100.00;97007.06;7389452;19;20312;-59
2022/11/21 09:35:58;;;;;;;439.85;396.17;;;;;;;-1.13;100.00;97013.50;7388021;19;20021;-59
2022/11/21 09:38:34;;;;;;;443.60;400.33;;;;;;;-1.00;100.00;97007.06;7384334;19;20015;-62
2022/11/21 09:44:19;;;;;;;433.50;391.55;;;;;;;-0.64;100.00;97002.34;7391075;19;20571;-60
2022/11/21 09:46:55;;;;;;;426.67;386.00;;;;;;;-1.08;100.00;97006.44;7390244;19;20339;-57
2022/11/21 09:49:30;;;;;;;452.50;409.90;;;;;;;-1.09;100.00;97002.19;7391373;19;20015;-58
2022/11/21 09:52:06;;;;;;;474.60;429.75;;;;;;;-1.09;100.00;97004.75;7390231;19;20021;-58
2022/11/21 09:54:52;;;;;;;474.73;429.77;;;;;;;-1.09;100.00;97003.94;7386967;19;20038;-61
2022/11/21 09:57:29;;;;;;;455.25;411.98;;;;;;;-1.03;100.00;96999.41;7389459;19;20342;-59
2022/11/21 10:00:03;;;;;;;482.08;436.50;;;;;;;-0.93;100.00;97003.38;7386463;19;20422;-55
2022/11/21 10:05:55;;;;;;;446.52;403.38;;;;;;;-0.60;100.00;96997.03;7390370;19;20468;-57
2022/11/21 10:08:39;;;;;;;454.27;409.08;;;;;;;-0.15;100.00;96992.75;7382433;19;20010;-56
2022/11/21 10:11:24;;;;;;;442.77;398.35;;;;;;;-0.11;100.00;96985.72;7386145;19;20017;-58
2022/11/21 10:14:10;;;;;;;459.20;413.95;;;;;;;0.10;100.00;96985.78;7387981;19;20334;-60
2022/11/21 10:16:49;;;;;;;441.75;397.83;;;;;;;0.23;100.00;96986.13;7386233;19;20014;-54
2022/11/21 10:19:43;;;;;;;469.98;424.73;;;;;;;-0.18;100.00;96987.72;7389177;19;20017;-55
2022/11/21 10:22:45;;;;;;;449.00;403.90;;;;;;;0.07;100.00;96993.63;7383367;19;20014;-67
2022/11/21 10:25:20;;;;;;;424.48;381.10;;;;;;;-0.11;100.00;96983.16;7388800;19;20015;-56
2022/11/21 10:27:59;;;;;;;448.48;403.70;;;;;;;-0.20;100.00;96986.09;7389445;19;20011;-55
2022/11/21 10:30:32;;;;;;;460.23;415.15;;;;;;;-0.13;100.00;96975.44;7387099;19;20033;-54
2022/11/21 10:33:09;;;;;;;454.88;408.98;;;;;;;0.05;100.00;96972.16;7381132;19;20007;-55
2022/11/21 10:35:47;;;;;;;451.73;406.83;;;;;;;-0.02;100.00;96972.47;7385860;19;20002;-55
2022/11/21 10:38:27;;;;;;;463.65;418.02;;;;;;;0.07;100.00;96972.97;7383854;19;20031;-57
2022/11/21 10:41:09;;;;;;;469.60;424.27;;;;;;;0.15;100.00;96976.09;7388599;19;20081;-54
2022/11/21 10:46:35;;;;;;;456.45;411.90;;;;;;;-0.01;100.00;96971.56;7384360;19;20098;-52
2022/11/21 10:49:10;;;;;;;487.25;440.33;;;;;;;0.06;100.00;96971.25;7382915;19;20015;-53
2022/11/21 10:51:53;;;;;;;466.92;421.90;;;;;;;-0.10;100.00;96959.84;7387121;19;20019;-56
2022/11/21 10:54:36;;;;;;;477.05;430.30;;;;;;;-0.21;100.00;96955.97;7381389;19;20030;-58
2022/11/21 10:57:18;;;;;;;442.25;398.10;;;;;;;0.23;100.00;96949.94;7387624;19;20017;-56
2022/11/21 11:00:06;;;;;;;471.10;424.80;;;;;;;0.26;100.00;96952.41;7382814;19;20011;-57
2022/11/21 11:02:40;;;;;;;443.10;398.90;;;;;;;0.22;100.00;96950.84;7386258;19;20011;-52
2022/11/21 11:05:27;;;;;;;429.85;385.80;;;;;;;0.41;100.00;96941.44;7382063;19;20038;-55
2022/11/21 11:08:13;;;;;;;443.88;398.35;;;;;;;1.00;100.00;96937.22;7386751;19;20018;-55
2022/11/21 11:10:48;;;;;;;444.42;399.10;;;;;;;1.36;100.00;96938.22;7386566;19;20029;-53
2022/11/21 11:13:36;;;;;;;434.80;389.50;;;;;;;2.14;100.00;96931.16;7388029;19;20014;-58
2022/11/21 11:16:21;;;;;;;436.92;391.13;;;;;;;1.87;100.00;96940.19;7385372;19;20469;-52
2022/11/21 11:19:02;;;;;;;447.15;401.33;;;;;;;2.26;100.00;96938.34;7384296;19;20470;-57
2022/11/21 11:21:48;;;;;;;438.88;393.60;;;;;;;1.80;100.00;96939.66;7388402;19;20017;-50
2022/11/21 11:24:30;;;;;;;441.17;394.75;;;;;;;1.99;100.00;96931.88;7387467;19;20481;-50
2022/11/21 11:27:06;;;;;;;437.25;391.80;;;;;;;2.09;100.00;96921.00;7391874;19;20360;-52
2022/11/21 11:29:56;;;;;;;442.15;396.90;;;;;;;1.75;100.00;96926.06;7386117;19;20485;-57
2022/11/21 11:32:32;;;;;;;418.58;374.83;;;;;;;1.61;100.00;96931.03;7393694;19;20034;-63
2022/11/21 11:35:10;;;;;;;449.10;402.95;;;;;;;1.73;100.00;96930.47;7386830;19;20017;-55
2022/11/21 11:37:46;;;;;;;427.88;384.52;;;;;;;1.62;100.00;96930.13;7394048;19;20006;-51
2022/11/21 11:40:29;;;;;;;450.38;405.55;;;;;;;2.19;100.00;96936.97;7390321;19;20500;-54
2022/11/21 11:50:10;;;;;;;440.98;396.70;;;;;;;1.70;100.00;96934.97;7391607;19;20335;-55
2022/11/21 11:52:37;;;;;;;442.33;397.52;;;;;;;1.72;100.00;96939.16;7391440;19;20343;-50
2022/11/21 11:55:19;;;;;;;436.77;392.10;;;;;;;1.97;100.00;96936.28;7393458;19;20366;-51
2022/11/21 11:57:55;;;;;;;444.20;398.75;;;;;;;1.93;100.00;96930.41;7390212;19;20395;-52
2022/11/21 12:00:47;;;;;;;445.75;400.23;;;;;;;2.59;100.00;96934.13;7392571;19;20351;-52